createdAt,value
2019-05-12T00:00:48.503Z,6.70
2019-05-12T00:01:48.183Z,3.80
2019-05-12T00:02:48.629Z,4.40
2019-05-12T00:03:48.433Z,4.40
2019-05-12T00:04:48.822Z,4.90
2019-05-12T00:05:48.373Z,5.20
2019-05-12T00:06:48.014Z,4.60
2019-05-12T00:07:48.806Z,4.50
2019-05-12T00:08:48.757Z,3.70
2019-05-12T00:09:48.051Z,4.20
2019-05-12T00:10:48.224Z,4.80
2019-05-12T00:11:48.466Z,4.10
2019-05-12T00:12:48.543Z,5.80
2019-05-12T00:13:47.964Z,4.50
2019-05-12T00:14:48.525Z,5.20
2019-05-12T00:15:47.802Z,5.20
2019-05-12T00:16:49.134Z,5.40
2019-05-12T00:17:48.353Z,4.20
2019-05-12T00:18:48.318Z,5.20
2019-05-12T00:19:48.008Z,5.60
2019-05-12T00:20:47.775Z,4.30
2019-05-12T00:21:48.432Z,6.50
2019-05-12T00:22:48.676Z,4.70
2019-05-12T00:23:47.817Z,5.30
2019-05-12T00:24:47.963Z,4.60
2019-05-12T00:25:48.090Z,4.80
2019-05-12T00:26:47.880Z,6.20
2019-05-12T00:27:48.697Z,4.90
2019-05-12T00:28:48.250Z,5.40
2019-05-12T00:29:48.595Z,5.80
2019-05-12T00:30:48.734Z,3.40
2019-05-12T00:31:47.919Z,4.90
2019-05-12T00:32:47.868Z,4.00
2019-05-12T00:33:48.112Z,4.60
2019-05-12T00:34:48.130Z,5.50
2019-05-12T00:35:48.266Z,4.20
2019-05-12T00:36:48.553Z,4.60
2019-05-12T00:37:48.656Z,4.00
2019-05-12T00:38:48.529Z,5.10
2019-05-12T00:39:47.923Z,4.80
2019-05-12T00:40:48.032Z,5.40
2019-05-12T00:41:48.219Z,5.70
2019-05-12T00:42:48.522Z,6.40
2019-05-12T00:43:48.716Z,5.10
2019-05-12T00:44:47.854Z,5.20
2019-05-12T00:45:48.224Z,4.70
2019-05-12T00:46:48.808Z,4.20
2019-05-12T00:47:48.070Z,4.80
2019-05-12T00:48:48.263Z,4.10
2019-05-12T00:49:48.908Z,6.10
2019-05-12T00:50:48.545Z,9.10
2019-05-12T00:51:48.518Z,25.20
2019-05-12T00:52:48.912Z,24.50
2019-05-12T00:53:47.905Z,6.40
2019-05-12T00:54:48.259Z,5.40
2019-05-12T00:55:47.721Z,4.50
2019-05-12T00:56:48.202Z,5.50
2019-05-12T00:57:48.466Z,5.10
2019-05-12T00:58:48.743Z,5.00
2019-05-12T00:59:47.855Z,5.80
2019-05-12T01:00:48.262Z,5.50
2019-05-12T01:01:48.153Z,5.10
2019-05-12T01:02:48.614Z,6.50
2019-05-12T01:03:48.381Z,6.10
2019-05-12T01:04:48.701Z,6.60
2019-05-12T01:05:48.537Z,4.70
2019-05-12T01:06:48.666Z,4.30
2019-05-12T01:07:48.184Z,4.80
2019-05-12T01:08:48.364Z,3.90
2019-05-12T01:09:49.101Z,4.30
2019-05-12T01:10:47.899Z,4.70
2019-05-12T01:11:48.200Z,5.90
2019-05-12T01:12:48.586Z,6.60
2019-05-12T01:13:48.574Z,6.10
2019-05-12T01:14:47.837Z,5.60
2019-05-12T01:15:48.125Z,6.30
2019-05-12T01:16:48.629Z,3.90
2019-05-12T01:17:47.775Z,6.00
2019-05-12T01:18:47.977Z,5.70
2019-05-12T01:19:48.564Z,5.30
2019-05-12T01:20:47.934Z,4.90
2019-05-12T01:21:48.126Z,4.80
2019-05-12T01:22:50.376Z,4.90
2019-05-12T01:23:56.416Z,7.40
2019-05-12T01:24:48.405Z,5.60
2019-05-12T01:25:47.830Z,4.90
2019-05-12T01:26:47.650Z,8.50
2019-05-12T01:27:48.316Z,5.60
2019-05-12T01:28:48.794Z,8.20
2019-05-12T01:29:48.048Z,6.20
2019-05-12T01:30:47.964Z,6.60
2019-05-12T01:31:48.606Z,5.10
2019-05-12T01:32:48.386Z,5.80
2019-05-12T01:33:48.600Z,5.30
2019-05-12T01:34:48.671Z,5.20
2019-05-12T01:35:48.358Z,6.60
2019-05-12T01:36:48.329Z,6.10
2019-05-12T01:37:48.409Z,5.70
2019-05-12T01:38:48.282Z,5.00
2019-05-12T01:39:49.057Z,5.60
2019-05-12T01:40:47.942Z,6.90
2019-05-12T01:41:48.107Z,5.50
2019-05-12T01:42:48.358Z,6.20
2019-05-12T01:43:48.771Z,4.60
2019-05-12T01:44:48.151Z,7.70
2019-05-12T01:45:48.315Z,7.20
2019-05-12T01:46:48.410Z,5.00
2019-05-12T01:47:48.553Z,5.50
2019-05-12T01:48:48.430Z,4.20
2019-05-12T01:49:48.760Z,5.70
2019-05-12T01:50:47.576Z,4.60
2019-05-12T01:51:47.664Z,4.00
2019-05-12T01:52:47.815Z,5.20
2019-05-12T01:53:48.255Z,4.10
2019-05-12T01:54:48.298Z,4.90
2019-05-12T01:55:48.574Z,3.60
2019-05-12T01:56:48.368Z,6.90
2019-05-12T01:57:48.602Z,5.50
2019-05-12T01:58:48.386Z,3.90
2019-05-12T01:59:48.381Z,5.10
2019-05-12T02:00:48.287Z,7.60
2019-05-12T02:01:48.654Z,5.30
2019-05-12T02:02:48.083Z,5.20
2019-05-12T02:03:48.074Z,4.60
2019-05-12T02:04:48.350Z,5.00
2019-05-12T02:05:48.571Z,5.20
2019-05-12T02:06:48.572Z,5.40
2019-05-12T02:07:47.950Z,4.90
2019-05-12T02:08:47.796Z,4.50
2019-05-12T02:09:48.064Z,5.40
2019-05-12T02:10:48.086Z,5.00
2019-05-12T02:11:48.363Z,7.60
2019-05-12T02:12:48.861Z,6.70
2019-05-12T02:13:48.604Z,5.90
2019-05-12T02:14:48.625Z,4.70
2019-05-12T02:15:48.469Z,6.50
2019-05-12T02:16:47.698Z,5.80
2019-05-12T02:17:48.147Z,3.50
2019-05-12T02:18:48.887Z,6.70
2019-05-12T02:19:48.051Z,6.00
2019-05-12T02:20:48.314Z,6.10
2019-05-12T02:21:48.529Z,5.80
2019-05-12T02:22:47.730Z,5.70
2019-05-12T02:23:47.754Z,5.40
2019-05-12T02:24:47.848Z,5.50
2019-05-12T02:25:48.356Z,7.20
2019-05-12T02:26:48.500Z,6.00
2019-05-12T02:27:47.715Z,6.20
2019-05-12T02:28:48.088Z,5.50
2019-05-12T02:29:48.009Z,5.40
2019-05-12T02:30:49.918Z,5.20
2019-05-12T02:31:49.797Z,5.20
2019-05-12T02:32:52.989Z,7.10
2019-05-12T02:33:47.333Z,3.60
2019-05-12T02:34:46.328Z,4.60
2019-05-12T02:35:46.305Z,4.80
2019-05-12T02:36:46.296Z,6.50
2019-05-12T02:37:46.289Z,6.00
2019-05-12T02:38:46.274Z,5.00
2019-05-12T02:39:46.279Z,5.20
2019-05-12T02:40:46.255Z,4.80
2019-05-12T02:41:46.253Z,6.20
2019-05-12T02:42:46.725Z,5.70
2019-05-12T02:43:46.225Z,6.20
2019-05-12T02:44:46.208Z,7.20
2019-05-12T02:45:46.206Z,6.90
2019-05-12T02:46:46.188Z,5.40
2019-05-12T02:47:46.181Z,7.10
2019-05-12T02:48:46.171Z,4.80
2019-05-12T02:49:46.163Z,6.80
2019-05-12T02:50:46.162Z,6.60
2019-05-12T02:51:46.141Z,5.50
2019-05-12T02:52:46.127Z,7.00
2019-05-12T02:53:46.954Z,5.40
2019-05-12T02:54:55.284Z,5.60
2019-05-12T02:55:47.112Z,5.80
2019-05-12T02:56:46.081Z,4.70
2019-05-12T02:57:46.071Z,6.70
2019-05-12T02:58:46.065Z,4.90
2019-05-12T02:59:46.047Z,5.70
2019-05-12T03:00:46.050Z,7.00
2019-05-12T03:01:46.030Z,6.10
2019-05-12T03:02:46.022Z,5.00
2019-05-12T03:03:46.033Z,4.90
2019-05-12T03:04:45.997Z,6.80
2019-05-12T03:05:45.997Z,5.70
2019-05-12T03:06:45.972Z,6.80
2019-05-12T03:07:45.975Z,5.40
2019-05-12T03:08:45.958Z,5.90
2019-05-12T03:09:45.956Z,5.30
2019-05-12T03:10:45.941Z,7.40
2019-05-12T03:11:45.932Z,5.90
2019-05-12T03:12:45.918Z,6.70
2019-05-12T03:13:45.900Z,5.40
2019-05-12T03:14:45.887Z,7.30
2019-05-12T03:15:45.887Z,4.70
2019-05-12T03:16:45.911Z,6.10
2019-05-12T03:17:45.894Z,5.00
2019-05-12T03:18:45.853Z,7.70
2019-05-12T03:19:45.835Z,4.60
2019-05-12T03:20:45.826Z,6.20
2019-05-12T03:21:45.819Z,5.60
2019-05-12T03:22:45.813Z,4.70
2019-05-12T03:23:45.803Z,7.50
2019-05-12T03:24:45.785Z,4.80
2019-05-12T03:25:45.941Z,5.50
2019-05-12T03:26:45.766Z,8.40
2019-05-12T03:27:45.749Z,5.70
2019-05-12T03:28:45.780Z,4.60
2019-05-12T03:29:45.730Z,5.60
2019-05-12T03:30:48.578Z,5.90
2019-05-12T03:31:48.858Z,5.20
2019-05-12T03:32:47.448Z,4.90
2019-05-12T03:33:52.252Z,6.40
2019-05-12T03:34:47.765Z,7.60
2019-05-12T03:35:52.354Z,4.80
2019-05-12T03:36:51.067Z,5.40
2019-05-12T03:37:46.644Z,5.40
2019-05-12T03:38:45.649Z,5.00
2019-05-12T03:39:45.641Z,5.00
2019-05-12T03:40:45.625Z,6.40
2019-05-12T03:41:45.604Z,5.30
2019-05-12T03:42:45.593Z,4.70
2019-05-12T03:43:45.585Z,5.50
2019-05-12T03:44:45.587Z,4.30
2019-05-12T03:45:45.655Z,5.10
2019-05-12T03:46:45.935Z,5.30
2019-05-12T03:47:45.811Z,6.00
2019-05-12T03:48:45.621Z,5.30
2019-05-12T03:49:45.585Z,5.70
2019-05-12T03:50:46.278Z,5.10
2019-05-12T03:51:45.841Z,3.30
2019-05-12T03:52:45.483Z,7.90
2019-05-12T03:53:45.708Z,7.40
2019-05-12T03:54:45.468Z,6.40
2019-05-12T03:55:47.030Z,5.70
2019-05-12T03:56:45.456Z,7.80
2019-05-12T03:57:45.445Z,4.20
2019-05-12T03:58:45.469Z,4.80
2019-05-12T03:59:45.409Z,5.10
2019-05-12T04:00:45.400Z,4.30
2019-05-12T04:01:45.539Z,5.30
2019-05-12T04:02:45.650Z,5.30
2019-05-12T04:03:45.482Z,6.60
2019-05-12T04:04:45.517Z,4.10
2019-05-12T04:05:45.716Z,5.20
2019-05-12T04:06:45.695Z,7.50
2019-05-12T04:07:45.334Z,5.10
2019-05-12T04:08:45.810Z,5.40
2019-05-12T04:09:45.317Z,5.10
2019-05-12T04:10:45.626Z,5.60
2019-05-12T04:11:45.295Z,6.20
2019-05-12T04:12:45.284Z,6.30
2019-05-12T04:13:45.461Z,5.90
2019-05-12T04:14:45.253Z,5.50
2019-05-12T04:15:45.845Z,6.50
2019-05-12T04:16:45.565Z,6.20
2019-05-12T04:17:45.562Z,5.00
2019-05-12T04:18:45.318Z,5.90
2019-05-12T04:19:45.201Z,6.80
2019-05-12T04:20:45.528Z,8.00
2019-05-12T04:21:45.187Z,5.70
2019-05-12T04:22:45.162Z,6.40
2019-05-12T04:23:45.152Z,9.30
2019-05-12T04:24:45.149Z,5.00
2019-05-12T04:25:52.168Z,6.50
2019-05-12T04:26:46.153Z,5.10
2019-05-12T04:27:45.284Z,4.30
2019-05-12T04:28:45.760Z,6.10
2019-05-12T04:29:45.094Z,5.50
2019-05-12T04:30:45.084Z,5.40
2019-05-12T04:31:45.074Z,5.80
2019-05-12T04:32:45.455Z,7.90
2019-05-12T04:33:45.402Z,8.30
2019-05-12T04:34:45.035Z,4.20
2019-05-12T04:35:45.400Z,4.30
2019-05-12T04:36:45.364Z,7.50
2019-05-12T04:37:45.161Z,4.70
2019-05-12T04:38:45.222Z,8.30
2019-05-12T04:39:44.983Z,4.20
2019-05-12T04:40:45.545Z,4.90
2019-05-12T04:41:45.046Z,6.70
2019-05-12T04:42:45.457Z,3.90
2019-05-12T04:43:44.992Z,6.60
2019-05-12T04:44:45.030Z,4.90
2019-05-12T04:45:45.485Z,3.70
2019-05-12T04:46:45.295Z,5.10
2019-05-12T04:47:45.222Z,6.90
2019-05-12T04:48:45.520Z,6.50
2019-05-12T04:49:45.275Z,5.50
2019-05-12T04:50:45.323Z,7.70
2019-05-12T04:51:45.216Z,4.40
2019-05-12T04:52:44.941Z,5.60
2019-05-12T04:53:45.074Z,6.40
2019-05-12T04:54:44.829Z,5.10
2019-05-12T04:55:45.025Z,4.90
2019-05-12T04:56:45.061Z,5.40
2019-05-12T04:57:45.276Z,5.50
2019-05-12T04:58:45.253Z,6.30
2019-05-12T04:59:45.225Z,5.70
2019-05-12T05:00:44.943Z,7.90
2019-05-12T05:01:45.493Z,6.20
2019-05-12T05:02:45.689Z,4.80
2019-05-12T05:03:44.733Z,6.10
2019-05-12T05:04:44.715Z,6.80
2019-05-12T05:05:44.899Z,4.10
2019-05-12T05:06:45.064Z,3.90
2019-05-12T05:07:45.033Z,6.20
2019-05-12T05:08:44.677Z,6.10
2019-05-12T05:09:44.662Z,5.80
2019-05-12T05:10:44.656Z,6.80
2019-05-12T05:11:45.317Z,4.90
2019-05-12T05:12:45.113Z,5.10
2019-05-12T05:13:44.697Z,7.10
2019-05-12T05:14:44.755Z,5.30
2019-05-12T05:15:44.908Z,5.00
2019-05-12T05:16:45.245Z,7.10
2019-05-12T05:17:44.590Z,3.40
2019-05-12T05:18:44.564Z,4.80
2019-05-12T05:19:44.556Z,6.10
2019-05-12T05:20:44.542Z,4.50
2019-05-12T05:21:44.539Z,5.10
2019-05-12T05:22:44.549Z,5.80
2019-05-12T05:23:44.510Z,7.20
2019-05-12T05:24:44.504Z,8.50
2019-05-12T05:25:44.489Z,5.70
2019-05-12T05:26:44.479Z,5.60
2019-05-12T05:27:44.560Z,5.80
2019-05-12T05:28:44.466Z,7.40
2019-05-12T05:29:44.450Z,6.20
2019-05-12T05:30:44.498Z,6.70
2019-05-12T05:31:44.428Z,4.70
2019-05-12T05:32:44.645Z,6.90
2019-05-12T05:33:44.405Z,7.60
2019-05-12T05:34:46.239Z,5.40
2019-05-12T05:35:45.391Z,6.20
2019-05-12T05:36:44.375Z,4.70
2019-05-12T05:37:44.432Z,5.90
2019-05-12T05:38:44.370Z,7.50
2019-05-12T05:39:49.442Z,6.80
2019-05-12T05:40:45.326Z,5.70
2019-05-12T05:41:48.867Z,6.90
2019-05-12T05:42:45.305Z,7.30
2019-05-12T05:43:48.622Z,4.60
2019-05-12T05:44:45.290Z,4.30
2019-05-12T05:45:44.274Z,5.50
2019-05-12T05:46:49.820Z,4.60
2019-05-12T05:47:45.256Z,6.00
2019-05-12T05:48:44.292Z,5.30
2019-05-12T05:49:44.232Z,6.40
2019-05-12T05:50:44.222Z,4.50
2019-05-12T05:51:46.712Z,5.40
2019-05-12T05:52:45.200Z,5.30
2019-05-12T05:53:44.418Z,6.50
2019-05-12T05:54:44.194Z,7.40
2019-05-12T05:55:44.314Z,7.60
2019-05-12T05:56:57.611Z,4.40
2019-05-12T05:57:45.143Z,3.90
2019-05-12T05:58:46.916Z,5.90
2019-05-12T05:59:45.129Z,4.30
2019-05-12T06:00:44.112Z,4.60
2019-05-12T06:01:49.512Z,7.30
2019-05-12T06:02:45.101Z,4.70
2019-05-12T06:03:44.298Z,4.60
2019-05-12T06:04:45.439Z,4.40
2019-05-12T06:05:45.068Z,5.90
2019-05-12T06:06:50.595Z,5.90
2019-05-12T06:07:45.039Z,6.10
2019-05-12T06:08:44.476Z,5.80
2019-05-12T06:09:44.029Z,5.10
2019-05-12T06:10:44.018Z,5.00
2019-05-12T06:11:44.004Z,6.90
2019-05-12T06:12:48.633Z,5.80
2019-05-12T06:13:44.982Z,8.00
2019-05-12T06:14:48.783Z,4.70
2019-05-12T06:15:44.950Z,6.00
2019-05-12T06:16:43.958Z,7.10
2019-05-12T06:17:44.037Z,7.90
2019-05-12T06:18:44.276Z,5.20
2019-05-12T06:19:43.920Z,9.70
2019-05-12T06:20:43.949Z,5.20
2019-05-12T06:21:44.187Z,5.50
2019-05-12T06:22:43.943Z,6.50
2019-05-12T06:23:43.880Z,5.00
2019-05-12T06:24:44.233Z,5.20
2019-05-12T06:25:49.355Z,6.40
2019-05-12T06:26:56.740Z,6.60
2019-05-12T06:27:44.821Z,4.90
2019-05-12T06:28:44.145Z,5.00
2019-05-12T06:29:43.839Z,6.50
2019-05-12T06:30:47.007Z,4.40
2019-05-12T06:31:44.801Z,8.30
2019-05-12T06:32:50.085Z,5.00
2019-05-12T06:33:44.789Z,4.40
2019-05-12T06:34:43.751Z,55.50
2019-05-12T06:35:45.376Z,16.80
2019-05-12T06:36:44.152Z,45.80
2019-05-12T06:37:44.472Z,102.80
2019-05-12T06:38:43.707Z,74.80
2019-05-12T06:39:43.693Z,9.10
2019-05-12T06:40:45.327Z,6.40
2019-05-12T06:41:44.387Z,5.60
2019-05-12T06:42:48.144Z,6.20
2019-05-12T06:43:45.418Z,7.80
2019-05-12T06:44:43.842Z,6.00
2019-05-12T06:45:45.545Z,5.10
2019-05-12T06:46:44.242Z,7.20
2019-05-12T06:47:45.279Z,4.70
2019-05-12T06:48:45.621Z,9.30
2019-05-12T06:49:44.000Z,6.20
2019-05-12T06:50:44.216Z,5.10
2019-05-12T06:51:44.469Z,6.60
2019-05-12T06:52:48.737Z,6.70
2019-05-12T06:53:44.542Z,6.70
2019-05-12T06:54:51.124Z,5.60
2019-05-12T06:55:44.536Z,5.80
2019-05-12T06:56:43.635Z,4.80
2019-05-12T06:57:48.284Z,6.10
2019-05-12T06:58:44.519Z,7.20
2019-05-12T06:59:50.985Z,5.90
2019-05-12T07:00:44.473Z,7.40
2019-05-12T07:01:44.955Z,5.00
2019-05-12T07:02:50.995Z,5.50
2019-05-12T07:03:44.437Z,3.20
2019-05-12T07:04:47.462Z,5.90
2019-05-12T07:05:45.280Z,4.30
2019-05-12T07:06:44.182Z,100.20
2019-05-12T07:07:46.002Z,36.40
2019-05-12T07:08:43.951Z,107.30
2019-05-12T07:09:53.482Z,74.20
2019-05-12T07:10:51.501Z,9.70
2019-05-12T07:11:52.923Z,5.00
2019-05-12T07:12:55.946Z,5.50
2019-05-12T07:13:44.348Z,7.10
2019-05-12T07:14:43.786Z,5.00
2019-05-12T07:15:43.928Z,3.70
2019-05-12T07:16:44.161Z,5.50
2019-05-12T07:17:47.697Z,7.20
2019-05-12T07:18:44.270Z,4.60
2019-05-12T07:19:43.950Z,5.00
2019-05-12T07:20:43.638Z,4.80
2019-05-12T07:21:43.981Z,7.20
2019-05-12T07:22:45.877Z,5.70
2019-05-12T07:23:44.541Z,4.50
2019-05-12T07:24:50.010Z,4.10
2019-05-12T07:25:44.673Z,4.20
2019-05-12T07:26:44.227Z,6.70
2019-05-12T07:27:47.254Z,7.00
2019-05-12T07:28:44.168Z,5.30
2019-05-12T07:29:43.595Z,6.80
2019-05-12T07:30:44.103Z,4.80
2019-05-12T07:31:44.150Z,7.70
2019-05-12T07:32:43.397Z,6.40
2019-05-12T07:33:45.790Z,7.50
2019-05-12T07:34:43.780Z,13.50
2019-05-12T07:35:44.430Z,20.70
2019-05-12T07:36:44.286Z,67.70
2019-05-12T07:37:43.611Z,116.00
2019-05-12T07:38:43.458Z,424.20
2019-05-12T07:39:45.469Z,573.60
2019-05-12T07:40:44.429Z,465.50
2019-05-12T07:41:50.986Z,579.20
2019-05-12T07:42:44.037Z,768.10
2019-05-12T07:43:44.376Z,807.80
2019-05-12T07:44:44.105Z,819.50
2019-05-12T07:45:44.114Z,887.40
2019-05-12T07:46:45.630Z,878.70
2019-05-12T07:47:44.955Z,949.10
2019-05-12T07:48:49.011Z,898.30
2019-05-12T07:49:44.203Z,865.40
2019-05-12T07:50:43.384Z,745.10
2019-05-12T07:51:44.658Z,881.10
2019-05-12T07:52:44.181Z,873.20
2019-05-12T07:53:47.002Z,762.90
2019-05-12T07:54:44.430Z,1020.00
2019-05-12T07:55:45.382Z,1126.70
2019-05-12T07:56:44.362Z,1138.00
2019-05-12T07:57:52.877Z,1101.20
2019-05-12T07:58:47.436Z,1060.40
2019-05-12T07:59:43.909Z,1049.40
2019-05-12T08:00:44.259Z,1116.90
2019-05-12T08:01:50.187Z,1103.90
2019-05-12T08:02:44.423Z,1037.20
2019-05-12T08:03:43.670Z,1077.20
2019-05-12T08:04:43.999Z,1092.50
2019-05-12T08:05:43.928Z,1049.30
2019-05-12T08:06:46.565Z,1051.20
2019-05-12T08:07:44.500Z,1109.00
2019-05-12T08:08:50.371Z,1045.00
2019-05-12T08:09:43.737Z,1077.50
2019-05-12T08:10:44.330Z,1136.60
2019-05-12T08:11:43.405Z,1079.80
2019-05-12T08:12:44.485Z,1132.50
2019-05-12T08:13:43.831Z,1146.30
2019-05-12T08:14:43.968Z,1171.50
2019-05-12T08:15:45.714Z,1121.50
2019-05-12T08:16:43.855Z,1123.60
2019-05-12T08:17:44.118Z,1159.80
2019-05-12T08:18:44.453Z,1133.50
2019-05-12T08:19:44.342Z,1121.90
2019-05-12T08:20:43.541Z,1064.40
2019-05-12T08:21:48.618Z,1039.00
2019-05-12T08:22:43.894Z,831.40
2019-05-12T08:23:44.449Z,711.30
2019-05-12T08:24:49.617Z,856.50
2019-05-12T08:25:43.634Z,54.00
2019-05-12T08:26:43.525Z,90.10
2019-05-12T08:27:45.153Z,80.50
2019-05-12T08:28:44.132Z,38.70
2019-05-12T08:29:43.279Z,12.20
2019-05-12T08:30:49.838Z,26.90
2019-05-12T08:31:44.077Z,13.70
2019-05-12T08:32:44.310Z,8.10
2019-05-12T08:33:43.668Z,4.80
2019-05-12T08:34:43.721Z,5.20
2019-05-12T08:35:43.839Z,4.70
2019-05-12T08:36:44.968Z,6.70
2019-05-12T08:37:44.117Z,3.70
2019-05-12T08:38:44.390Z,5.40
2019-05-12T08:39:44.252Z,4.10
2019-05-12T08:40:48.823Z,3.70
2019-05-12T08:41:44.441Z,5.20
2019-05-12T08:42:43.626Z,5.30
2019-05-12T08:43:47.203Z,4.40
2019-05-12T08:44:43.974Z,6.80
2019-05-12T08:45:44.407Z,6.00
2019-05-12T08:46:51.201Z,3.40
2019-05-12T08:47:44.052Z,3.90
2019-05-12T08:48:44.507Z,4.60
2019-05-12T08:49:51.079Z,3.80
2019-05-12T08:50:46.001Z,6.10
2019-05-12T08:51:44.288Z,4.80
2019-05-12T08:52:44.180Z,5.30
2019-05-12T08:53:43.969Z,4.30
2019-05-12T08:54:45.381Z,8.00
2019-05-12T08:55:43.668Z,8.50
2019-05-12T08:56:43.654Z,24.20
2019-05-12T08:57:48.980Z,72.30
2019-05-12T08:58:48.341Z,4.80
2019-05-12T08:59:44.156Z,3.10
2019-05-12T09:00:46.438Z,6.00
2019-05-12T09:01:43.821Z,4.40
2019-05-12T09:02:46.135Z,3.90
2019-05-12T09:03:44.315Z,4.50
2019-05-12T09:04:43.089Z,3.60
2019-05-12T09:05:44.581Z,7.00
2019-05-12T09:06:43.454Z,4.00
2019-05-12T09:07:43.560Z,4.30
2019-05-12T09:08:45.130Z,4.20
2019-05-12T09:09:43.964Z,4.40
2019-05-12T09:10:44.938Z,4.10
2019-05-12T09:11:44.053Z,3.00
2019-05-12T09:12:44.099Z,3.70
2019-05-12T09:13:43.443Z,5.00
2019-05-12T09:14:46.106Z,5.50
2019-05-12T09:15:43.851Z,3.90
2019-05-12T09:16:44.033Z,2.60
2019-05-12T09:17:48.963Z,5.20
2019-05-12T09:18:43.542Z,4.50
2019-05-12T09:19:43.591Z,3.90
2019-05-12T09:20:48.850Z,5.10
2019-05-12T09:21:44.207Z,4.50
2019-05-12T09:22:43.230Z,4.60
2019-05-12T09:23:45.362Z,4.50
2019-05-12T09:24:43.987Z,4.10
2019-05-12T09:25:45.328Z,3.50
2019-05-12T09:26:43.352Z,3.30
2019-05-12T09:27:45.641Z,4.50
2019-05-12T09:28:49.899Z,4.30
2019-05-12T09:29:43.580Z,3.70
2019-05-12T09:30:45.915Z,3.40
2019-05-12T09:31:44.061Z,5.30
2019-05-12T09:32:48.631Z,4.90
2019-05-12T09:33:44.574Z,3.70
2019-05-12T09:34:46.911Z,5.30
2019-05-12T09:35:43.745Z,3.20
2019-05-12T09:36:43.782Z,5.10
2019-05-12T09:37:43.964Z,3.20
2019-05-12T09:38:43.868Z,4.20
2019-05-12T09:39:43.584Z,4.30
2019-05-12T09:40:43.812Z,2.90
2019-05-12T09:41:46.461Z,3.70
2019-05-12T09:42:44.088Z,4.50
2019-05-12T09:43:46.381Z,15.50
2019-05-12T09:44:43.896Z,13.70
2019-05-12T09:45:49.761Z,12.90
2019-05-12T09:46:44.067Z,11.50
2019-05-12T09:47:43.667Z,14.00
2019-05-12T09:48:46.916Z,6.20
2019-05-12T09:49:44.433Z,6.90
2019-05-12T09:50:44.192Z,8.40
2019-05-12T09:51:45.696Z,7.80
2019-05-12T09:52:43.916Z,10.10
2019-05-12T09:53:42.911Z,10.20
2019-05-12T09:54:44.446Z,5.80
2019-05-12T09:55:43.628Z,6.30
2019-05-12T09:56:43.989Z,8.80
2019-05-12T09:57:43.008Z,7.90
2019-05-12T09:58:43.639Z,8.50
2019-05-12T09:59:45.952Z,5.80
2019-05-12T10:00:43.445Z,5.60
2019-05-12T10:01:45.728Z,5.90
2019-05-12T10:02:43.640Z,5.10
2019-05-12T10:03:43.739Z,3.50
2019-05-12T10:04:43.662Z,5.30
2019-05-12T10:05:41.562Z,5.50
2019-05-12T10:06:41.519Z,3.60
2019-05-12T10:07:41.512Z,4.10
2019-05-12T10:08:43.412Z,4.30
2019-05-12T10:09:41.498Z,4.80
2019-05-12T10:10:44.619Z,4.60
2019-05-12T10:11:44.746Z,4.00
2019-05-12T10:12:46.337Z,4.80
2019-05-12T10:13:44.782Z,3.10
2019-05-12T10:14:45.988Z,42.10
2019-05-12T10:15:42.778Z,139.90
2019-05-12T10:16:45.550Z,82.10
2019-05-12T10:17:43.415Z,6.20
2019-05-12T10:18:43.121Z,4.50
2019-05-12T10:19:43.398Z,3.70
2019-05-12T10:20:41.380Z,5.30
2019-05-12T10:21:41.378Z,4.20
2019-05-12T10:22:43.559Z,5.90
2019-05-12T10:23:43.516Z,4.70
2019-05-12T10:24:52.115Z,4.80
2019-05-12T10:25:44.662Z,4.10
2019-05-12T10:26:47.265Z,3.30
2019-05-12T10:27:44.291Z,2.80
2019-05-12T10:28:43.724Z,4.70
2019-05-12T10:29:43.714Z,4.40
2019-05-12T10:30:41.278Z,3.30
2019-05-12T10:31:41.275Z,3.50
2019-05-12T10:32:43.476Z,3.90
2019-05-12T10:33:43.233Z,3.80
2019-05-12T10:34:41.243Z,4.60
2019-05-12T10:35:43.690Z,4.30
2019-05-12T10:36:44.920Z,3.90
2019-05-12T10:37:43.668Z,3.80
2019-05-12T10:38:43.267Z,5.30
2019-05-12T10:39:41.193Z,4.10
2019-05-12T10:40:41.185Z,5.10
2019-05-12T10:41:43.207Z,3.90
2019-05-12T10:42:46.205Z,4.50
2019-05-12T10:43:43.319Z,4.00
2019-05-12T10:44:41.148Z,3.90
2019-05-12T10:45:41.128Z,3.60
2019-05-12T10:46:42.545Z,3.30
2019-05-12T10:47:41.116Z,5.20
2019-05-12T10:48:44.164Z,3.20
2019-05-12T10:49:41.095Z,4.60
2019-05-12T10:50:41.101Z,6.00
2019-05-12T10:51:43.625Z,3.70
2019-05-12T10:52:41.129Z,4.50
2019-05-12T10:53:43.162Z,2.80
2019-05-12T10:54:43.328Z,4.70
2019-05-12T10:55:41.051Z,3.50
2019-05-12T10:56:43.663Z,5.30
2019-05-12T10:57:41.010Z,4.60
2019-05-12T10:58:41.106Z,3.50
2019-05-12T10:59:45.181Z,3.60
2019-05-12T11:00:44.194Z,3.20
2019-05-12T11:01:47.320Z,3.70
2019-05-12T11:02:41.965Z,3.10
2019-05-12T11:03:42.925Z,4.90
2019-05-12T11:04:44.039Z,111.30
2019-05-12T11:05:40.935Z,13.20
2019-05-12T11:06:46.879Z,50.40
2019-05-12T11:07:43.569Z,24.40
2019-05-12T11:08:41.273Z,5.00
2019-05-12T11:09:43.562Z,4.00
2019-05-12T11:10:40.883Z,3.00
2019-05-12T11:11:43.602Z,3.30
2019-05-12T11:12:44.023Z,3.40
2019-05-12T11:13:48.306Z,5.60
2019-05-12T11:14:43.900Z,3.20
2019-05-12T11:15:46.116Z,3.20
2019-05-12T11:16:44.439Z,2.80
2019-05-12T11:17:46.049Z,4.00
2019-05-12T11:18:43.672Z,4.60
2019-05-12T11:19:47.263Z,3.80
2019-05-12T11:20:41.783Z,3.20
2019-05-12T11:21:40.769Z,5.00
2019-05-12T11:22:40.760Z,3.30
2019-05-12T11:23:40.756Z,3.50
2019-05-12T11:24:40.773Z,4.60
2019-05-12T11:25:40.736Z,3.50
2019-05-12T11:26:43.098Z,3.50
2019-05-12T11:27:40.713Z,3.90
2019-05-12T11:28:40.702Z,2.90
2019-05-12T11:29:45.970Z,3.00
2019-05-12T11:30:43.680Z,2.80
2019-05-12T11:31:40.673Z,4.90
2019-05-12T11:32:40.657Z,4.90
2019-05-12T11:33:40.656Z,4.10
2019-05-12T11:34:40.642Z,3.60
2019-05-12T11:35:40.642Z,3.60
2019-05-12T11:36:40.618Z,3.60
2019-05-12T11:37:40.619Z,3.20
2019-05-12T11:38:40.601Z,4.50
2019-05-12T11:39:46.929Z,3.30
2019-05-12T11:40:43.586Z,3.50
2019-05-12T11:41:40.589Z,3.00
2019-05-12T11:42:40.564Z,3.30
2019-05-12T11:43:40.555Z,4.70
2019-05-12T11:44:40.542Z,3.20
2019-05-12T11:45:40.531Z,4.20
2019-05-12T11:46:40.537Z,3.20
2019-05-12T11:47:40.512Z,3.70
2019-05-12T11:48:45.574Z,2.40
2019-05-12T11:49:43.725Z,4.20
2019-05-12T11:50:46.480Z,3.20
2019-05-12T11:51:41.487Z,3.50
2019-05-12T11:52:40.463Z,3.70
2019-05-12T11:53:40.459Z,4.10
2019-05-12T11:54:41.222Z,4.20
2019-05-12T11:55:43.553Z,1.70
2019-05-12T11:56:45.730Z,3.30
2019-05-12T11:57:43.647Z,2.50
2019-05-12T11:58:41.318Z,3.70
2019-05-12T11:59:43.429Z,3.10
2019-05-12T12:00:41.381Z,4.10
2019-05-12T12:01:45.583Z,3.50
2019-05-12T12:02:43.620Z,3.90
2019-05-12T12:03:40.361Z,3.10
2019-05-12T12:04:40.343Z,4.00
2019-05-12T12:05:40.335Z,3.20
2019-05-12T12:06:40.333Z,2.20
2019-05-12T12:07:49.081Z,2.50
2019-05-12T12:08:41.310Z,2.10
2019-05-12T12:09:40.296Z,2.60
2019-05-12T12:10:40.384Z,6.60
2019-05-12T12:11:40.290Z,2.60
2019-05-12T12:12:45.273Z,2.10
2019-05-12T12:13:41.260Z,3.40
2019-05-12T12:14:45.042Z,4.50
2019-05-12T12:15:41.236Z,3.30
2019-05-12T12:16:44.250Z,1.90
2019-05-12T12:17:41.218Z,3.70
2019-05-12T12:18:40.214Z,3.80
2019-05-12T12:19:46.213Z,3.70
2019-05-12T12:20:41.193Z,5.30
2019-05-12T12:21:45.118Z,3.60
2019-05-12T12:22:43.009Z,3.70
2019-05-12T12:23:40.937Z,3.30
2019-05-12T12:24:43.526Z,24.90
2019-05-12T12:25:43.089Z,21.00
2019-05-12T12:26:41.129Z,11.60
2019-05-12T12:27:40.139Z,17.20
2019-05-12T12:28:40.121Z,3.70
2019-05-12T12:29:40.101Z,5.70
2019-05-12T12:30:40.101Z,4.20
2019-05-12T12:31:40.089Z,3.60
2019-05-12T12:32:40.077Z,3.90
2019-05-12T12:33:41.039Z,3.20
2019-05-12T12:34:40.058Z,3.10
2019-05-12T12:35:40.044Z,4.10
2019-05-12T12:36:40.039Z,3.00
2019-05-12T12:37:40.033Z,3.00
2019-05-12T12:38:40.025Z,2.70
2019-05-12T12:39:40.040Z,4.10
2019-05-12T12:40:40.008Z,4.10
2019-05-12T12:41:45.741Z,4.20
2019-05-12T12:42:46.336Z,4.80
2019-05-12T12:43:43.174Z,4.90
2019-05-12T12:44:39.963Z,5.30
2019-05-12T12:45:40.718Z,3.60
2019-05-12T12:46:39.941Z,4.50
2019-05-12T12:47:46.718Z,3.70
2019-05-12T12:48:40.930Z,4.30
2019-05-12T12:49:44.474Z,5.60
2019-05-12T12:50:40.906Z,3.80
2019-05-12T12:51:39.901Z,4.20
2019-05-12T12:52:46.870Z,4.80
2019-05-12T12:53:40.865Z,3.20
2019-05-12T12:54:39.857Z,3.50
2019-05-12T12:55:43.583Z,2.60
2019-05-12T12:56:40.850Z,3.70
2019-05-12T12:57:40.325Z,5.20
2019-05-12T12:58:40.826Z,3.10
2019-05-12T12:59:42.932Z,3.10
2019-05-12T13:00:47.143Z,3.60
2019-05-12T13:01:40.795Z,3.40
2019-05-12T13:02:45.101Z,3.00
2019-05-12T13:03:43.394Z,2.60
2019-05-12T13:04:45.212Z,3.40
2019-05-12T13:05:40.746Z,4.50
2019-05-12T13:06:39.742Z,3.70
2019-05-12T13:07:39.735Z,4.10
2019-05-12T13:08:39.721Z,3.90
2019-05-12T13:09:39.718Z,3.00
2019-05-12T13:10:40.630Z,10.30
2019-05-12T13:11:40.682Z,21.90
2019-05-12T13:12:39.674Z,23.90